sensor_id;sensor_type;location;lat;lon;timestamp;P1;durP1;ratioP1;P2;durP2;ratioP2
53267;SDS011;39156;51.176;6.738;2023-07-28T00:02:10;32.93;;;31.20;;
53267;SDS011;39156;51.176;6.738;2023-07-28T00:04:36;35.67;;;33.63;;
53267;SDS011;39156;51.176;6.738;2023-07-28T00:07:03;32.90;;;31.30;;
53267;SDS011;39156;51.176;6.738;2023-07-28T00:09:29;34.05;;;32.10;;
53267;SDS011;39156;51.176;6.738;2023-07-28T00:11:56;32.83;;;31.13;;
53267;SDS011;39156;51.176;6.738;2023-07-28T00:14:23;32.75;;;31.10;;
53267;SDS011;39156;51.176;6.738;2023-07-28T00:19:16;34.40;;;32.65;;
53267;SDS011;39156;51.176;6.738;2023-07-28T00:21:43;33.03;;;31.30;;
53267;SDS011;39156;51.176;6.738;2023-07-28T00:24:09;37.20;;;35.30;;
53267;SDS011;39156;51.176;6.738;2023-07-28T00:26:35;33.40;;;31.70;;
53267;SDS011;39156;51.176;6.738;2023-07-28T00:29:00;33.27;;;31.57;;
53267;SDS011;39156;51.176;6.738;2023-07-28T00:31:29;35.05;;;33.28;;
53267;SDS011;39156;51.176;6.738;2023-07-28T00:33:55;35.13;;;33.33;;
53267;SDS011;39156;51.176;6.738;2023-07-28T00:36:21;33.30;;;31.60;;
53267;SDS011;39156;51.176;6.738;2023-07-28T00:38:46;33.40;;;31.77;;
53267;SDS011;39156;51.176;6.738;2023-07-28T00:41:12;35.10;;;32.97;;
53267;SDS011;39156;51.176;6.738;2023-07-28T00:43:38;33.20;;;31.40;;
53267;SDS011;39156;51.176;6.738;2023-07-28T00:46:03;34.57;;;32.73;;
53267;SDS011;39156;51.176;6.738;2023-07-28T00:48:29;33.80;;;32.00;;
53267;SDS011;39156;51.176;6.738;2023-07-28T00:50:55;33.57;;;31.87;;
53267;SDS011;39156;51.176;6.738;2023-07-28T00:55:49;35.28;;;33.42;;
53267;SDS011;39156;51.176;6.738;2023-07-28T00:58:15;34.63;;;32.80;;
53267;SDS011;39156;51.176;6.738;2023-07-28T01:00:40;35.63;;;33.83;;
53267;SDS011;39156;51.176;6.738;2023-07-28T01:03:06;33.70;;;31.90;;
53267;SDS011;39156;51.176;6.738;2023-07-28T01:05:35;34.60;;;32.70;;
53267;SDS011;39156;51.176;6.738;2023-07-28T01:08:16;34.75;;;33.00;;
53267;SDS011;39156;51.176;6.738;2023-07-28T01:10:53;34.45;;;32.65;;
53267;SDS011;39156;51.176;6.738;2023-07-28T01:13:19;34.10;;;32.20;;
53267;SDS011;39156;51.176;6.738;2023-07-28T01:15:45;34.30;;;32.40;;
53267;SDS011;39156;51.176;6.738;2023-07-28T01:18:11;33.63;;;31.73;;
53267;SDS011;39156;51.176;6.738;2023-07-28T01:20:37;34.30;;;32.50;;
53267;SDS011;39156;51.176;6.738;2023-07-28T01:23:08;35.75;;;33.95;;
53267;SDS011;39156;51.176;6.738;2023-07-28T01:28:21;35.30;;;33.35;;
53267;SDS011;39156;51.176;6.738;2023-07-28T01:30:48;33.53;;;31.75;;
53267;SDS011;39156;51.176;6.738;2023-07-28T01:33:14;34.53;;;32.73;;
53267;SDS011;39156;51.176;6.738;2023-07-28T01:35:39;35.60;;;33.70;;
53267;SDS011;39156;51.176;6.738;2023-07-28T01:38:05;34.13;;;32.20;;
53267;SDS011;39156;51.176;6.738;2023-07-28T01:40:31;33.70;;;32.00;;
53267;SDS011;39156;51.176;6.738;2023-07-28T01:42:57;33.60;;;31.90;;
53267;SDS011;39156;51.176;6.738;2023-07-28T01:45:22;34.00;;;31.97;;
53267;SDS011;39156;51.176;6.738;2023-07-28T01:47:48;33.67;;;31.90;;
53267;SDS011;39156;51.176;6.738;2023-07-28T01:50:14;34.70;;;32.70;;
53267;SDS011;39156;51.176;6.738;2023-07-28T01:52:39;35.03;;;33.13;;
53267;SDS011;39156;51.176;6.738;2023-07-28T01:55:05;33.30;;;31.60;;
53267;SDS011;39156;51.176;6.738;2023-07-28T01:57:32;34.67;;;32.67;;
53267;SDS011;39156;51.176;6.738;2023-07-28T02:02:25;34.28;;;32.47;;
53267;SDS011;39156;51.176;6.738;2023-07-28T02:04:50;32.63;;;30.83;;
53267;SDS011;39156;51.176;6.738;2023-07-28T02:07:16;34.50;;;32.30;;
53267;SDS011;39156;51.176;6.738;2023-07-28T02:09:42;33.73;;;32.03;;
53267;SDS011;39156;51.176;6.738;2023-07-28T02:12:08;33.90;;;31.93;;
53267;SDS011;39156;51.176;6.738;2023-07-28T02:14:33;34.77;;;32.97;;
53267;SDS011;39156;51.176;6.738;2023-07-28T02:16:59;33.60;;;31.83;;
53267;SDS011;39156;51.176;6.738;2023-07-28T02:19:25;34.63;;;32.83;;
53267;SDS011;39156;51.176;6.738;2023-07-28T02:21:50;34.47;;;32.30;;
53267;SDS011;39156;51.176;6.738;2023-07-28T02:24:16;34.60;;;32.70;;
53267;SDS011;39156;51.176;6.738;2023-07-28T02:26:42;34.20;;;32.37;;
53267;SDS011;39156;51.176;6.738;2023-07-28T02:29:07;33.20;;;31.40;;
53267;SDS011;39156;51.176;6.738;2023-07-28T02:31:33;33.57;;;31.83;;
53267;SDS011;39156;51.176;6.738;2023-07-28T02:33:59;36.50;;;34.45;;
53267;SDS011;39156;51.176;6.738;2023-07-28T02:36:25;34.13;;;32.37;;
53267;SDS011;39156;51.176;6.738;2023-07-28T02:38:50;32.10;;;30.27;;
53267;SDS011;39156;51.176;6.738;2023-07-28T02:41:16;32.97;;;31.27;;
53267;SDS011;39156;51.176;6.738;2023-07-28T02:43:42;34.47;;;32.67;;
53267;SDS011;39156;51.176;6.738;2023-07-28T02:46:08;33.03;;;31.33;;
53267;SDS011;39156;51.176;6.738;2023-07-28T02:48:33;35.00;;;33.23;;
53267;SDS011;39156;51.176;6.738;2023-07-28T02:50:59;32.83;;;31.13;;
53267;SDS011;39156;51.176;6.738;2023-07-28T02:53:24;34.30;;;32.60;;
53267;SDS011;39156;51.176;6.738;2023-07-28T02:55:50;35.50;;;33.70;;
53267;SDS011;39156;51.176;6.738;2023-07-28T02:58:16;37.33;;;35.33;;
53267;SDS011;39156;51.176;6.738;2023-07-28T03:00:42;33.13;;;31.43;;
53267;SDS011;39156;51.176;6.738;2023-07-28T03:03:09;34.25;;;32.50;;
53267;SDS011;39156;51.176;6.738;2023-07-28T03:05:39;32.08;;;30.48;;
53267;SDS011;39156;51.176;6.738;2023-07-28T03:08:05;34.78;;;32.90;;
53267;SDS011;39156;51.176;6.738;2023-07-28T03:10:31;34.03;;;32.25;;
53267;SDS011;39156;51.176;6.738;2023-07-28T03:12:58;35.47;;;33.67;;
53267;SDS011;39156;51.176;6.738;2023-07-28T03:15:23;33.00;;;31.23;;
53267;SDS011;39156;51.176;6.738;2023-07-28T03:17:50;32.93;;;31.23;;
53267;SDS011;39156;51.176;6.738;2023-07-28T03:20:16;34.22;;;32.53;;
53267;SDS011;39156;51.176;6.738;2023-07-28T03:22:42;35.03;;;33.17;;
53267;SDS011;39156;51.176;6.738;2023-07-28T03:25:08;33.83;;;31.93;;
53267;SDS011;39156;51.176;6.738;2023-07-28T03:27:34;32.45;;;30.75;;
53267;SDS011;39156;51.176;6.738;2023-07-28T03:30:00;33.30;;;31.60;;
53267;SDS011;39156;51.176;6.738;2023-07-28T03:32:26;34.50;;;32.72;;
53267;SDS011;39156;51.176;6.738;2023-07-28T03:34:52;35.07;;;33.17;;
53267;SDS011;39156;51.176;6.738;2023-07-28T03:37:17;35.70;;;33.67;;
53267;SDS011;39156;51.176;6.738;2023-07-28T03:39:44;34.63;;;32.83;;
53267;SDS011;39156;51.176;6.738;2023-07-28T03:42:09;35.13;;;33.23;;
53267;SDS011;39156;51.176;6.738;2023-07-28T03:44:35;34.67;;;32.87;;
53267;SDS011;39156;51.176;6.738;2023-07-28T03:47:06;33.60;;;31.85;;
53267;SDS011;39156;51.176;6.738;2023-07-28T03:49:32;32.58;;;30.88;;
53267;SDS011;39156;51.176;6.738;2023-07-28T03:51:58;33.80;;;32.10;;
53267;SDS011;39156;51.176;6.738;2023-07-28T03:54:24;33.00;;;31.30;;
53267;SDS011;39156;51.176;6.738;2023-07-28T03:56:49;32.83;;;31.23;;
53267;SDS011;39156;51.176;6.738;2023-07-28T03:59:15;32.67;;;30.87;;
53267;SDS011;39156;51.176;6.738;2023-07-28T04:01:41;34.30;;;32.40;;
53267;SDS011;39156;51.176;6.738;2023-07-28T04:04:06;34.53;;;32.63;;
53267;SDS011;39156;51.176;6.738;2023-07-28T04:09:12;33.45;;;31.75;;
53267;SDS011;39156;51.176;6.738;2023-07-28T04:11:39;35.63;;;33.83;;
53267;SDS011;39156;51.176;6.738;2023-07-28T04:14:05;33.92;;;32.13;;
53267;SDS011;39156;51.176;6.738;2023-07-28T04:16:31;33.23;;;31.33;;
53267;SDS011;39156;51.176;6.738;2023-07-28T04:18:57;34.25;;;32.35;;
53267;SDS011;39156;51.176;6.738;2023-07-28T04:21:23;33.50;;;31.80;;
53267;SDS011;39156;51.176;6.738;2023-07-28T04:23:49;32.92;;;31.23;;
53267;SDS011;39156;51.176;6.738;2023-07-28T04:26:16;35.30;;;33.40;;
53267;SDS011;39156;51.176;6.738;2023-07-28T04:28:42;36.25;;;34.25;;
53267;SDS011;39156;51.176;6.738;2023-07-28T04:31:08;32.40;;;30.70;;
53267;SDS011;39156;51.176;6.738;2023-07-28T04:33:35;32.47;;;30.83;;
53267;SDS011;39156;51.176;6.738;2023-07-28T04:36:02;32.53;;;30.83;;
53267;SDS011;39156;51.176;6.738;2023-07-28T04:38:28;34.08;;;32.28;;
53267;SDS011;39156;51.176;6.738;2023-07-28T04:40:54;32.87;;;31.27;;
53267;SDS011;39156;51.176;6.738;2023-07-28T04:43:20;34.33;;;32.50;;
53267;SDS011;39156;51.176;6.738;2023-07-28T04:45:45;33.10;;;31.43;;
53267;SDS011;39156;51.176;6.738;2023-07-28T04:48:11;33.47;;;31.77;;
53267;SDS011;39156;51.176;6.738;2023-07-28T04:50:37;33.10;;;31.40;;
53267;SDS011;39156;51.176;6.738;2023-07-28T04:53:03;33.70;;;31.67;;
53267;SDS011;39156;51.176;6.738;2023-07-28T04:55:28;34.25;;;32.55;;
53267;SDS011;39156;51.176;6.738;2023-07-28T04:57:54;34.03;;;32.33;;
53267;SDS011;39156;51.176;6.738;2023-07-28T05:00:21;32.88;;;31.17;;
53267;SDS011;39156;51.176;6.738;2023-07-28T05:02:47;33.40;;;31.70;;
53267;SDS011;39156;51.176;6.738;2023-07-28T05:05:13;33.45;;;31.75;;
53267;SDS011;39156;51.176;6.738;2023-07-28T05:07:39;33.47;;;31.77;;
53267;SDS011;39156;51.176;6.738;2023-07-28T05:10:05;34.17;;;32.37;;
53267;SDS011;39156;51.176;6.738;2023-07-28T05:12:31;32.90;;;31.20;;
53267;SDS011;39156;51.176;6.738;2023-07-28T05:14:56;32.43;;;30.73;;
53267;SDS011;39156;51.176;6.738;2023-07-28T05:17:22;32.77;;;31.07;;
53267;SDS011;39156;51.176;6.738;2023-07-28T05:19:49;35.30;;;33.20;;
53267;SDS011;39156;51.176;6.738;2023-07-28T05:22:15;33.25;;;31.45;;
53267;SDS011;39156;51.176;6.738;2023-07-28T05:24:41;35.10;;;33.30;;
53267;SDS011;39156;51.176;6.738;2023-07-28T05:27:06;31.63;;;30.03;;
53267;SDS011;39156;51.176;6.738;2023-07-28T05:29:32;32.20;;;30.60;;
53267;SDS011;39156;51.176;6.738;2023-07-28T05:31:58;33.10;;;31.30;;
53267;SDS011;39156;51.176;6.738;2023-07-28T05:34:25;30.73;;;29.23;;
53267;SDS011;39156;51.176;6.738;2023-07-28T05:36:50;34.47;;;32.67;;
53267;SDS011;39156;51.176;6.738;2023-07-28T05:39:16;31.57;;;29.97;;
53267;SDS011;39156;51.176;6.738;2023-07-28T05:41:42;31.90;;;30.20;;
53267;SDS011;39156;51.176;6.738;2023-07-28T05:44:07;33.00;;;31.40;;
53267;SDS011;39156;51.176;6.738;2023-07-28T05:46:33;32.60;;;31.00;;
53267;SDS011;39156;51.176;6.738;2023-07-28T05:48:59;32.93;;;31.23;;
53267;SDS011;39156;51.176;6.738;2023-07-28T05:51:24;33.43;;;31.73;;
53267;SDS011;39156;51.176;6.738;2023-07-28T05:53:50;32.90;;;31.00;;
53267;SDS011;39156;51.176;6.738;2023-07-28T05:56:17;33.10;;;31.30;;
53267;SDS011;39156;51.176;6.738;2023-07-28T05:58:57;32.70;;;31.00;;
53267;SDS011;39156;51.176;6.738;2023-07-28T06:01:28;32.38;;;30.67;;
53267;SDS011;39156;51.176;6.738;2023-07-28T06:03:54;33.57;;;31.77;;
53267;SDS011;39156;51.176;6.738;2023-07-28T06:06:23;31.10;;;29.60;;
53267;SDS011;39156;51.176;6.738;2023-07-28T06:08:52;32.08;;;30.48;;
53267;SDS011;39156;51.176;6.738;2023-07-28T06:11:19;33.00;;;31.05;;
53267;SDS011;39156;51.176;6.738;2023-07-28T06:13:45;32.92;;;31.13;;
53267;SDS011;39156;51.176;6.738;2023-07-28T06:16:12;31.65;;;30.00;;
53267;SDS011;39156;51.176;6.738;2023-07-28T06:18:38;32.80;;;31.10;;
53267;SDS011;39156;51.176;6.738;2023-07-28T06:21:04;34.87;;;33.07;;
53267;SDS011;39156;51.176;6.738;2023-07-28T06:23:30;31.93;;;30.10;;
53267;SDS011;39156;51.176;6.738;2023-07-28T06:25:55;32.83;;;31.03;;
53267;SDS011;39156;51.176;6.738;2023-07-28T06:28:21;33.07;;;31.27;;
53267;SDS011;39156;51.176;6.738;2023-07-28T06:30:47;32.40;;;30.70;;
53267;SDS011;39156;51.176;6.738;2023-07-28T06:33:21;33.95;;;32.25;;
53267;SDS011;39156;51.176;6.738;2023-07-28T06:35:47;33.07;;;31.43;;
53267;SDS011;39156;51.176;6.738;2023-07-28T06:38:12;31.70;;;30.10;;
53267;SDS011;39156;51.176;6.738;2023-07-28T06:40:38;33.67;;;31.57;;
53267;SDS011;39156;51.176;6.738;2023-07-28T06:43:04;33.00;;;31.20;;
53267;SDS011;39156;51.176;6.738;2023-07-28T06:45:30;34.37;;;32.47;;
53267;SDS011;39156;51.176;6.738;2023-07-28T06:47:55;30.73;;;29.13;;
53267;SDS011;39156;51.176;6.738;2023-07-28T06:50:21;32.30;;;30.37;;
53267;SDS011;39156;51.176;6.738;2023-07-28T06:52:47;30.67;;;29.13;;
53267;SDS011;39156;51.176;6.738;2023-07-28T06:55:13;33.45;;;31.55;;
53267;SDS011;39156;51.176;6.738;2023-07-28T06:57:40;32.35;;;30.58;;
53267;SDS011;39156;51.176;6.738;2023-07-28T07:00:06;33.37;;;31.67;;
53267;SDS011;39156;51.176;6.738;2023-07-28T07:02:34;31.88;;;30.17;;
53267;SDS011;39156;51.176;6.738;2023-07-28T07:05:01;32.40;;;30.70;;
53267;SDS011;39156;51.176;6.738;2023-07-28T07:07:27;32.60;;;30.90;;
53267;SDS011;39156;51.176;6.738;2023-07-28T07:09:53;32.33;;;30.63;;
53267;SDS011;39156;51.176;6.738;2023-07-28T07:12:18;32.43;;;30.70;;
53267;SDS011;39156;51.176;6.738;2023-07-28T07:14:46;31.88;;;30.08;;
53267;SDS011;39156;51.176;6.738;2023-07-28T07:17:12;31.98;;;30.17;;
53267;SDS011;39156;51.176;6.738;2023-07-28T07:19:38;31.70;;;29.90;;
53267;SDS011;39156;51.176;6.738;2023-07-28T07:22:04;32.55;;;30.85;;
53267;SDS011;39156;51.176;6.738;2023-07-28T07:26:56;33.30;;;31.58;;
53267;SDS011;39156;51.176;6.738;2023-07-28T07:29:22;32.97;;;31.17;;
53267;SDS011;39156;51.176;6.738;2023-07-28T07:31:48;32.13;;;30.33;;
53267;SDS011;39156;51.176;6.738;2023-07-28T07:34:14;31.50;;;29.80;;
53267;SDS011;39156;51.176;6.738;2023-07-28T07:36:40;31.15;;;29.55;;
53267;SDS011;39156;51.176;6.738;2023-07-28T07:39:06;31.63;;;30.03;;
53267;SDS011;39156;51.176;6.738;2023-07-28T07:41:32;34.00;;;31.85;;
53267;SDS011;39156;51.176;6.738;2023-07-28T07:43:58;32.35;;;30.73;;
53267;SDS011;39156;51.176;6.738;2023-07-28T07:46:24;33.53;;;31.67;;
53267;SDS011;39156;51.176;6.738;2023-07-28T07:48:50;31.57;;;29.97;;
53267;SDS011;39156;51.176;6.738;2023-07-28T07:51:16;31.83;;;30.13;;
53267;SDS011;39156;51.176;6.738;2023-07-28T07:53:42;32.50;;;30.70;;
53267;SDS011;39156;51.176;6.738;2023-07-28T07:56:07;33.80;;;31.80;;
53267;SDS011;39156;51.176;6.738;2023-07-28T07:58:34;33.75;;;31.75;;
53267;SDS011;39156;51.176;6.738;2023-07-28T08:01:00;32.50;;;30.80;;
53267;SDS011;39156;51.176;6.738;2023-07-28T08:03:26;31.53;;;29.87;;
53267;SDS011;39156;51.176;6.738;2023-07-28T08:05:52;32.58;;;30.63;;
53267;SDS011;39156;51.176;6.738;2023-07-28T08:08:18;34.63;;;32.67;;
53267;SDS011;39156;51.176;6.738;2023-07-28T08:10:44;33.40;;;31.60;;
53267;SDS011;39156;51.176;6.738;2023-07-28T08:13:12;34.10;;;32.17;;
53267;SDS011;39156;51.176;6.738;2023-07-28T08:15:38;32.85;;;31.13;;
53267;SDS011;39156;51.176;6.738;2023-07-28T08:18:03;32.40;;;30.70;;
53267;SDS011;39156;51.176;6.738;2023-07-28T08:20:29;33.63;;;31.83;;
53267;SDS011;39156;51.176;6.738;2023-07-28T08:22:55;33.80;;;31.90;;
53267;SDS011;39156;51.176;6.738;2023-07-28T08:25:20;32.47;;;30.77;;
53267;SDS011;39156;51.176;6.738;2023-07-28T08:27:47;35.08;;;33.10;;
53267;SDS011;39156;51.176;6.738;2023-07-28T08:30:13;33.00;;;31.27;;
53267;SDS011;39156;51.176;6.738;2023-07-28T08:32:40;32.08;;;30.23;;
53267;SDS011;39156;51.176;6.738;2023-07-28T08:35:07;31.42;;;29.73;;
53267;SDS011;39156;51.176;6.738;2023-07-28T08:37:33;32.92;;;31.15;;
53267;SDS011;39156;51.176;6.738;2023-07-28T08:39:59;33.05;;;31.35;;
53267;SDS011;39156;51.176;6.738;2023-07-28T08:42:24;32.93;;;31.13;;
53267;SDS011;39156;51.176;6.738;2023-07-28T08:44:50;31.92;;;30.20;;
53267;SDS011;39156;51.176;6.738;2023-07-28T08:47:18;32.58;;;30.67;;
53267;SDS011;39156;51.176;6.738;2023-07-28T08:49:45;32.25;;;30.55;;
53267;SDS011;39156;51.176;6.738;2023-07-28T08:52:11;31.67;;;30.07;;
53267;SDS011;39156;51.176;6.738;2023-07-28T08:54:42;30.77;;;29.08;;
53267;SDS011;39156;51.176;6.738;2023-07-28T08:57:08;30.90;;;29.30;;
53267;SDS011;39156;51.176;6.738;2023-07-28T08:59:35;31.80;;;30.00;;
53267;SDS011;39156;51.176;6.738;2023-07-28T09:02:01;31.35;;;29.33;;
53267;SDS011;39156;51.176;6.738;2023-07-28T09:04:29;32.63;;;30.83;;
53267;SDS011;39156;51.176;6.738;2023-07-28T09:06:55;31.23;;;29.35;;
53267;SDS011;39156;51.176;6.738;2023-07-28T09:09:21;32.17;;;30.37;;
53267;SDS011;39156;51.176;6.738;2023-07-28T09:11:49;32.15;;;30.05;;
53267;SDS011;39156;51.176;6.738;2023-07-28T09:14:17;31.10;;;29.40;;
53267;SDS011;39156;51.176;6.738;2023-07-28T09:16:45;31.13;;;29.42;;
53267;SDS011;39156;51.176;6.738;2023-07-28T09:19:12;32.25;;;30.25;;
53267;SDS011;39156;51.176;6.738;2023-07-28T09:21:39;47.03;;;43.08;;
53267;SDS011;39156;51.176;6.738;2023-07-28T09:24:09;37.60;;;34.97;;
53267;SDS011;39156;51.176;6.738;2023-07-28T09:26:43;32.83;;;30.83;;
53267;SDS011;39156;51.176;6.738;2023-07-28T09:29:15;36.20;;;33.65;;
53267;SDS011;39156;51.176;6.738;2023-07-28T09:31:46;36.20;;;33.83;;
53267;SDS011;39156;51.176;6.738;2023-07-28T09:34:13;40.63;;;37.42;;
53267;SDS011;39156;51.176;6.738;2023-07-28T09:36:56;35.22;;;32.90;;
53267;SDS011;39156;51.176;6.738;2023-07-28T09:39:23;33.40;;;31.30;;
53267;SDS011;39156;51.176;6.738;2023-07-28T09:41:50;32.13;;;30.42;;
53267;SDS011;39156;51.176;6.738;2023-07-28T09:44:16;34.33;;;32.17;;
53267;SDS011;39156;51.176;6.738;2023-07-28T09:46:52;33.40;;;31.42;;
53267;SDS011;39156;51.176;6.738;2023-07-28T09:49:29;32.28;;;30.42;;
53267;SDS011;39156;51.176;6.738;2023-07-28T09:52:05;30.13;;;28.52;;
53267;SDS011;39156;51.176;6.738;2023-07-28T09:54:36;31.65;;;29.33;;
53267;SDS011;39156;51.176;6.738;2023-07-28T09:57:06;30.40;;;28.67;;
53267;SDS011;39156;51.176;6.738;2023-07-28T09:59:41;29.88;;;28.17;;
53267;SDS011;39156;51.176;6.738;2023-07-28T10:02:07;30.42;;;28.30;;
53267;SDS011;39156;51.176;6.738;2023-07-28T10:04:34;28.95;;;27.45;;
53267;SDS011;39156;51.176;6.738;2023-07-28T10:09:28;28.17;;;26.63;;
53267;SDS011;39156;51.176;6.738;2023-07-28T10:11:55;29.05;;;27.55;;
53267;SDS011;39156;51.176;6.738;2023-07-28T10:14:25;28.75;;;27.25;;
53267;SDS011;39156;51.176;6.738;2023-07-28T10:16:52;28.73;;;27.23;;
53267;SDS011;39156;51.176;6.738;2023-07-28T10:19:21;29.88;;;28.27;;
53267;SDS011;39156;51.176;6.738;2023-07-28T10:21:58;28.85;;;27.35;;
53267;SDS011;39156;51.176;6.738;2023-07-28T10:27:36;30.13;;;28.30;;
53267;SDS011;39156;51.176;6.738;2023-07-28T10:30:05;30.20;;;28.70;;
53267;SDS011;39156;51.176;6.738;2023-07-28T10:32:44;29.80;;;28.20;;
53267;SDS011;39156;51.176;6.738;2023-07-28T10:37:45;30.27;;;28.48;;
53267;SDS011;39156;51.176;6.738;2023-07-28T10:42:59;30.33;;;27.80;;
53267;SDS011;39156;51.176;6.738;2023-07-28T10:45:27;28.80;;;27.30;;
53267;SDS011;39156;51.176;6.738;2023-07-28T10:47:55;29.10;;;27.58;;
53267;SDS011;39156;51.176;6.738;2023-07-28T10:50:22;29.05;;;27.55;;
53267;SDS011;39156;51.176;6.738;2023-07-28T10:52:48;29.58;;;28.08;;
53267;SDS011;39156;51.176;6.738;2023-07-28T10:55:22;28.25;;;26.65;;
53267;SDS011;39156;51.176;6.738;2023-07-28T10:57:52;29.70;;;28.20;;
53267;SDS011;39156;51.176;6.738;2023-07-28T11:00:19;28.65;;;27.15;;
53267;SDS011;39156;51.176;6.738;2023-07-28T11:07:51;28.40;;;27.00;;
53267;SDS011;39156;51.176;6.738;2023-07-28T11:10:20;28.73;;;27.23;;
53267;SDS011;39156;51.176;6.738;2023-07-28T11:12:46;29.95;;;28.45;;
53267;SDS011;39156;51.176;6.738;2023-07-28T11:15:18;28.00;;;26.55;;
53267;SDS011;39156;51.176;6.738;2023-07-28T11:17:48;28.55;;;27.15;;
53267;SDS011;39156;51.176;6.738;2023-07-28T11:20:19;27.77;;;26.38;;
53267;SDS011;39156;51.176;6.738;2023-07-28T11:22:54;28.70;;;27.27;;
53267;SDS011;39156;51.176;6.738;2023-07-28T11:25:26;27.75;;;26.35;;
53267;SDS011;39156;51.176;6.738;2023-07-28T11:27:53;28.10;;;26.70;;
53267;SDS011;39156;51.176;6.738;2023-07-28T11:30:22;28.17;;;26.67;;
53267;SDS011;39156;51.176;6.738;2023-07-28T11:32:50;28.58;;;27.08;;
53267;SDS011;39156;51.176;6.738;2023-07-28T11:35:19;28.20;;;26.73;;
53267;SDS011;39156;51.176;6.738;2023-07-28T11:37:47;28.13;;;26.73;;
53267;SDS011;39156;51.176;6.738;2023-07-28T11:40:19;28.42;;;26.92;;
53267;SDS011;39156;51.176;6.738;2023-07-28T11:42:47;29.20;;;27.70;;
53267;SDS011;39156;51.176;6.738;2023-07-28T11:45:16;29.20;;;27.70;;
53267;SDS011;39156;51.176;6.738;2023-07-28T11:50:34;28.13;;;26.73;;
53267;SDS011;39156;51.176;6.738;2023-07-28T11:53:05;28.95;;;27.25;;
53267;SDS011;39156;51.176;6.738;2023-07-28T11:55:34;29.00;;;27.60;;
53267;SDS011;39156;51.176;6.738;2023-07-28T11:58:01;30.08;;;28.58;;
53267;SDS011;39156;51.176;6.738;2023-07-28T12:00:33;29.40;;;27.90;;
53267;SDS011;39156;51.176;6.738;2023-07-28T12:03:01;29.77;;;28.20;;
53267;SDS011;39156;51.176;6.738;2023-07-28T12:05:41;29.35;;;27.90;;
53267;SDS011;39156;51.176;6.738;2023-07-28T12:08:37;28.80;;;27.25;;
53267;SDS011;39156;51.176;6.738;2023-07-28T12:11:03;29.73;;;28.23;;
53267;SDS011;39156;51.176;6.738;2023-07-28T12:15:55;29.58;;;28.10;;
53267;SDS011;39156;51.176;6.738;2023-07-28T12:18:20;30.05;;;28.48;;
53267;SDS011;39156;51.176;6.738;2023-07-28T12:20:48;28.65;;;27.25;;
53267;SDS011;39156;51.176;6.738;2023-07-28T12:23:17;29.20;;;27.70;;
53267;SDS011;39156;51.176;6.738;2023-07-28T12:25:44;29.65;;;28.05;;
53267;SDS011;39156;51.176;6.738;2023-07-28T12:28:10;28.67;;;27.27;;
53267;SDS011;39156;51.176;6.738;2023-07-28T12:30:37;30.60;;;29.00;;
53267;SDS011;39156;51.176;6.738;2023-07-28T12:35:29;29.17;;;27.67;;
53267;SDS011;39156;51.176;6.738;2023-07-28T12:37:59;28.70;;;27.30;;
53267;SDS011;39156;51.176;6.738;2023-07-28T12:40:34;28.48;;;27.02;;
53267;SDS011;39156;51.176;6.738;2023-07-28T12:43:02;28.25;;;26.75;;
53267;SDS011;39156;51.176;6.738;2023-07-28T12:45:29;28.85;;;27.35;;
53267;SDS011;39156;51.176;6.738;2023-07-28T12:47:55;29.05;;;27.55;;
53267;SDS011;39156;51.176;6.738;2023-07-28T12:50:21;29.02;;;27.52;;
53267;SDS011;39156;51.176;6.738;2023-07-28T12:52:48;28.85;;;27.45;;
53267;SDS011;39156;51.176;6.738;2023-07-28T12:55:15;29.27;;;27.77;;
53267;SDS011;39156;51.176;6.738;2023-07-28T12:57:42;28.85;;;27.08;;
53267;SDS011;39156;51.176;6.738;2023-07-28T13:02:41;29.83;;;28.15;;
53267;SDS011;39156;51.176;6.738;2023-07-28T13:05:11;29.80;;;28.15;;
53267;SDS011;39156;51.176;6.738;2023-07-28T13:07:39;30.83;;;29.33;;
53267;SDS011;39156;51.176;6.738;2023-07-28T13:10:08;30.00;;;28.48;;
53267;SDS011;39156;51.176;6.738;2023-07-28T13:12:35;29.75;;;28.25;;
53267;SDS011;39156;51.176;6.738;2023-07-28T13:15:01;30.25;;;28.63;;
53267;SDS011;39156;51.176;6.738;2023-07-28T13:17:27;30.90;;;29.20;;
53267;SDS011;39156;51.176;6.738;2023-07-28T13:19:53;30.05;;;28.45;;
53267;SDS011;39156;51.176;6.738;2023-07-28T13:22:19;29.63;;;28.13;;
53267;SDS011;39156;51.176;6.738;2023-07-28T13:24:44;30.10;;;28.50;;
53267;SDS011;39156;51.176;6.738;2023-07-28T13:27:10;31.67;;;29.98;;
53267;SDS011;39156;51.176;6.738;2023-07-28T13:29:36;30.17;;;28.58;;
53267;SDS011;39156;51.176;6.738;2023-07-28T13:32:01;30.38;;;28.88;;
53267;SDS011;39156;51.176;6.738;2023-07-28T13:34:28;30.33;;;28.83;;
53267;SDS011;39156;51.176;6.738;2023-07-28T13:36:54;29.55;;;28.10;;
53267;SDS011;39156;51.176;6.738;2023-07-28T13:39:20;30.30;;;28.70;;
53267;SDS011;39156;51.176;6.738;2023-07-28T13:41:47;30.10;;;28.58;;
53267;SDS011;39156;51.176;6.738;2023-07-28T13:44:13;29.95;;;28.25;;
53267;SDS011;39156;51.176;6.738;2023-07-28T13:46:38;32.15;;;30.45;;
53267;SDS011;39156;51.176;6.738;2023-07-28T13:49:04;30.75;;;29.20;;
53267;SDS011;39156;51.176;6.738;2023-07-28T13:51:30;30.67;;;29.08;;
53267;SDS011;39156;51.176;6.738;2023-07-28T13:53:56;31.52;;;29.73;;
53267;SDS011;39156;51.176;6.738;2023-07-28T13:56:21;29.95;;;28.45;;
53267;SDS011;39156;51.176;6.738;2023-07-28T13:58:47;30.10;;;28.60;;
53267;SDS011;39156;51.176;6.738;2023-07-28T14:01:13;30.98;;;29.38;;
53267;SDS011;39156;51.176;6.738;2023-07-28T14:03:38;30.42;;;28.83;;
53267;SDS011;39156;51.176;6.738;2023-07-28T14:06:04;29.95;;;28.38;;
53267;SDS011;39156;51.176;6.738;2023-07-28T14:08:30;30.65;;;29.13;;
53267;SDS011;39156;51.176;6.738;2023-07-28T14:10:56;29.85;;;28.35;;
53267;SDS011;39156;51.176;6.738;2023-07-28T14:13:21;29.27;;;27.77;;
53267;SDS011;39156;51.176;6.738;2023-07-28T14:15:47;30.70;;;29.10;;
53267;SDS011;39156;51.176;6.738;2023-07-28T14:18:15;29.70;;;28.15;;
53267;SDS011;39156;51.176;6.738;2023-07-28T14:20:41;29.45;;;27.95;;
53267;SDS011;39156;51.176;6.738;2023-07-28T14:23:20;29.65;;;28.15;;
53267;SDS011;39156;51.176;6.738;2023-07-28T14:25:50;30.50;;;29.00;;
53267;SDS011;39156;51.176;6.738;2023-07-28T14:28:16;31.63;;;29.92;;
53267;SDS011;39156;51.176;6.738;2023-07-28T14:30:42;30.80;;;29.23;;
53267;SDS011;39156;51.176;6.738;2023-07-28T14:33:15;29.50;;;27.90;;
53267;SDS011;39156;51.176;6.738;2023-07-28T14:35:45;31.58;;;29.98;;
53267;SDS011;39156;51.176;6.738;2023-07-28T14:38:13;29.77;;;28.27;;
53267;SDS011;39156;51.176;6.738;2023-07-28T14:40:38;31.10;;;29.60;;
53267;SDS011;39156;51.176;6.738;2023-07-28T14:45:31;30.77;;;29.23;;
53267;SDS011;39156;51.176;6.738;2023-07-28T14:47:57;30.95;;;29.35;;
53267;SDS011;39156;51.176;6.738;2023-07-28T14:50:23;28.88;;;27.38;;
53267;SDS011;39156;51.176;6.738;2023-07-28T14:52:49;30.45;;;28.85;;
53267;SDS011;39156;51.176;6.738;2023-07-28T14:55:14;30.15;;;28.65;;
53267;SDS011;39156;51.176;6.738;2023-07-28T14:57:40;31.08;;;29.58;;
53267;SDS011;39156;51.176;6.738;2023-07-28T15:00:06;30.27;;;28.70;;
53267;SDS011;39156;51.176;6.738;2023-07-28T15:02:34;29.67;;;28.17;;
53267;SDS011;39156;51.176;6.738;2023-07-28T15:05:01;30.33;;;28.73;;